createdAt,value
2022-11-20T00:01:29.617Z,18.33
2022-11-20T00:03:58.727Z,17.95
2022-11-20T00:06:26.380Z,18.80
2022-11-20T00:08:56.582Z,17.42
2022-11-20T00:11:24.807Z,17.88
2022-11-20T00:13:53.900Z,18.45
2022-11-20T00:16:23.555Z,17.70
2022-11-20T00:18:50.793Z,18.30
2022-11-20T00:21:23.385Z,18.15
2022-11-20T00:23:51.318Z,17.52
2022-11-20T00:26:20.198Z,18.58
2022-11-20T00:28:58.462Z,19.37
2022-11-20T00:31:25.737Z,20.45
2022-11-20T00:33:53.105Z,19.17
2022-11-20T00:36:25.485Z,19.38
2022-11-20T00:38:57.063Z,20.23
2022-11-20T00:41:24.889Z,19.65
2022-11-20T00:43:53.387Z,20.05
2022-11-20T00:46:22.602Z,21.15
2022-11-20T00:48:50.040Z,18.08
2022-11-20T00:51:19.432Z,17.92
2022-11-20T00:53:46.474Z,17.30
2022-11-20T00:56:15.698Z,18.80
2022-11-20T00:58:44.941Z,17.20
2022-11-20T01:01:25.165Z,17.35
2022-11-20T01:03:53.397Z,18.65
2022-11-20T01:06:28.908Z,17.13
2022-11-20T01:08:58.239Z,16.45
2022-11-20T01:11:33.715Z,16.90
2022-11-20T01:14:02.805Z,16.45
2022-11-20T01:16:35.571Z,17.02
2022-11-20T01:19:04.483Z,16.08
2022-11-20T01:21:52.216Z,16.02
2022-11-20T01:24:20.896Z,15.38
2022-11-20T01:26:50.691Z,16.23
2022-11-20T01:31:46.530Z,12.65
2022-11-20T01:34:15.294Z,15.15
2022-11-20T01:36:43.243Z,11.33
2022-11-20T01:39:21.216Z,15.70
2022-11-20T01:42:10.071Z,15.43
2022-11-20T01:44:54.227Z,14.63
2022-11-20T01:47:30.148Z,13.90
2022-11-20T01:50:03.475Z,14.40
2022-11-20T01:52:50.524Z,14.15
2022-11-20T01:55:28.694Z,15.15
2022-11-20T01:57:55.841Z,13.30
2022-11-20T02:00:22.868Z,13.70
2022-11-20T02:02:56.708Z,13.18
2022-11-20T02:05:26.437Z,15.25
2022-11-20T02:10:21.045Z,13.75
2022-11-20T02:13:06.203Z,13.25
2022-11-20T02:15:34.606Z,12.07
2022-11-20T02:18:01.516Z,13.27
2022-11-20T02:20:28.633Z,13.73
2022-11-20T02:23:00.632Z,14.38
2022-11-20T02:25:28.825Z,14.80
2022-11-20T02:27:55.690Z,13.60
2022-11-20T02:30:22.341Z,13.18
2022-11-20T02:32:49.011Z,13.50
2022-11-20T02:35:18.738Z,13.65
2022-11-20T02:40:12.624Z,12.23
2022-11-20T02:42:39.281Z,13.52
2022-11-20T02:45:06.793Z,14.10
2022-11-20T02:47:34.152Z,12.70
2022-11-20T02:50:00.881Z,13.82
2022-11-20T02:52:27.559Z,13.90
2022-11-20T02:54:54.324Z,13.50
2022-11-20T02:57:21.044Z,13.73
2022-11-20T02:59:47.776Z,12.48
2022-11-20T03:02:14.381Z,12.32
2022-11-20T03:04:41.170Z,12.63
2022-11-20T03:07:09.397Z,10.55
2022-11-20T03:09:36.084Z,11.50
2022-11-20T03:12:02.708Z,10.57
2022-11-20T03:14:29.290Z,10.85
2022-11-20T03:16:56.852Z,12.00
2022-11-20T03:19:24.484Z,10.80
2022-11-20T03:21:51.011Z,10.98
2022-11-20T03:24:17.673Z,11.38
2022-11-20T03:26:44.418Z,10.73
2022-11-20T03:29:11.076Z,10.20
2022-11-20T03:31:43.067Z,9.60
2022-11-20T03:34:12.269Z,10.40
2022-11-20T03:36:43.403Z,9.57
2022-11-20T03:39:10.424Z,10.57
2022-11-20T03:41:39.321Z,10.63
2022-11-20T03:44:10.132Z,8.77
2022-11-20T03:46:36.954Z,11.18
2022-11-20T03:49:04.272Z,11.15
2022-11-20T03:51:33.429Z,13.52
2022-11-20T03:54:03.135Z,13.43
2022-11-20T03:58:57.703Z,13.48
2022-11-20T04:01:27.463Z,13.32
2022-11-20T04:03:55.794Z,13.20
2022-11-20T04:06:30.752Z,13.50
2022-11-20T04:08:59.411Z,13.05
2022-11-20T04:11:31.407Z,12.32
2022-11-20T04:14:00.356Z,13.00
2022-11-20T04:16:29.772Z,13.73
2022-11-20T04:18:58.785Z,10.73
2022-11-20T04:21:26.436Z,13.70
2022-11-20T04:23:54.046Z,12.48
2022-11-20T04:26:22.075Z,12.70
2022-11-20T04:28:48.742Z,12.02
2022-11-20T04:31:21.389Z,12.63
2022-11-20T04:33:48.362Z,12.88
2022-11-20T04:36:23.925Z,13.23
2022-11-20T04:38:57.350Z,12.98
2022-11-20T04:41:30.526Z,12.82
2022-11-20T04:44:02.820Z,11.98
2022-11-20T04:46:30.970Z,11.60
2022-11-20T04:48:57.576Z,12.60
2022-11-20T04:51:24.761Z,12.45
2022-11-20T04:53:51.612Z,11.43
2022-11-20T04:56:18.754Z,11.43
2022-11-20T04:58:45.537Z,12.57
2022-11-20T05:01:17.852Z,10.85
2022-11-20T05:03:45.841Z,11.15
2022-11-20T05:06:14.942Z,11.30
2022-11-20T05:08:42.203Z,10.90
2022-11-20T05:11:14.053Z,10.13
2022-11-20T05:13:41.381Z,10.68
2022-11-20T05:16:11.032Z,11.43
2022-11-20T05:18:39.020Z,11.18
2022-11-20T05:21:06.486Z,10.93
2022-11-20T05:23:34.121Z,11.40
2022-11-20T05:26:01.866Z,11.32
2022-11-20T05:28:30.145Z,11.60
2022-11-20T05:30:57.002Z,11.07
2022-11-20T05:33:23.829Z,12.27
2022-11-20T05:35:50.440Z,11.20
2022-11-20T05:38:16.972Z,10.68
2022-11-20T05:40:43.745Z,9.95
2022-11-20T05:43:10.302Z,9.98
2022-11-20T05:45:36.950Z,10.85
2022-11-20T05:48:04.098Z,9.73
2022-11-20T05:50:30.810Z,11.40
2022-11-20T05:53:00.557Z,10.15
2022-11-20T05:57:55.870Z,10.85
2022-11-20T06:00:23.636Z,10.93
2022-11-20T06:02:50.378Z,11.32
2022-11-20T06:05:17.214Z,11.15
2022-11-20T06:07:43.877Z,10.70
2022-11-20T06:10:10.529Z,10.32
2022-11-20T06:12:37.071Z,10.30
2022-11-20T06:15:05.946Z,10.40
2022-11-20T06:17:32.755Z,11.20
2022-11-20T06:19:59.381Z,10.63
2022-11-20T06:22:26.064Z,11.60
2022-11-20T06:24:52.644Z,11.38
2022-11-20T06:27:19.338Z,10.65
2022-11-20T06:29:45.926Z,11.02
2022-11-20T06:32:12.559Z,9.40
2022-11-20T06:34:39.141Z,10.75
2022-11-20T06:37:05.760Z,11.93
2022-11-20T06:39:32.303Z,10.65
2022-11-20T06:41:59.473Z,10.07
2022-11-20T06:44:26.782Z,10.85
2022-11-20T06:46:53.430Z,10.48
2022-11-20T06:49:20.360Z,11.10
2022-11-20T06:51:47.112Z,11.20
2022-11-20T06:54:13.742Z,10.45
2022-11-20T06:56:40.415Z,10.65
2022-11-20T06:59:08.250Z,10.30
2022-11-20T07:01:35.908Z,9.75
2022-11-20T07:04:04.124Z,10.48
2022-11-20T07:06:30.913Z,10.27
2022-11-20T07:08:58.017Z,10.98
2022-11-20T07:11:24.775Z,11.43
2022-11-20T07:13:51.470Z,10.57
2022-11-20T07:16:18.191Z,10.73
2022-11-20T07:18:49.966Z,10.57
2022-11-20T07:21:17.232Z,11.43
2022-11-20T07:23:43.828Z,11.35
2022-11-20T07:26:11.708Z,11.20
2022-11-20T07:28:38.508Z,10.48
2022-11-20T07:31:06.010Z,10.18
2022-11-20T07:33:32.794Z,12.27
2022-11-20T07:36:01.102Z,11.70
2022-11-20T07:38:27.893Z,11.13
2022-11-20T07:40:56.743Z,11.63
2022-11-20T07:43:23.346Z,12.57
2022-11-20T07:45:49.990Z,12.55
2022-11-20T07:48:16.620Z,11.63
2022-11-20T07:50:43.233Z,12.13
2022-11-20T07:53:09.933Z,11.80
2022-11-20T07:55:36.438Z,10.80
2022-11-20T07:58:03.002Z,12.05
2022-11-20T08:00:29.627Z,11.18
2022-11-20T08:02:56.384Z,12.32
2022-11-20T08:05:23.490Z,10.82
2022-11-20T08:07:50.285Z,11.48
2022-11-20T08:10:17.623Z,10.73
2022-11-20T08:13:08.007Z,10.32
2022-11-20T08:15:35.581Z,9.75
2022-11-20T08:20:54.084Z,9.80
2022-11-20T08:23:20.680Z,9.88
2022-11-20T08:25:51.923Z,10.88
2022-11-20T08:28:21.656Z,10.68
2022-11-20T08:30:50.237Z,11.20
2022-11-20T08:33:18.213Z,11.60
2022-11-20T08:35:44.975Z,12.38
2022-11-20T08:38:11.634Z,12.68
2022-11-20T08:40:38.219Z,14.93
2022-11-20T08:43:05.411Z,14.75
2022-11-20T08:45:34.910Z,15.38
2022-11-20T08:50:29.524Z,16.70
2022-11-20T08:52:56.144Z,16.27
2022-11-20T08:55:22.752Z,16.90
2022-11-20T08:57:51.018Z,19.88
2022-11-20T09:00:18.117Z,17.35
2022-11-20T09:02:44.693Z,17.73
2022-11-20T09:05:11.351Z,16.83
2022-11-20T09:07:38.044Z,17.25
2022-11-20T09:12:52.775Z,17.75
2022-11-20T09:15:20.360Z,18.17
2022-11-20T09:17:57.946Z,17.80
2022-11-20T09:20:25.667Z,19.25
2022-11-20T09:22:52.372Z,21.65
2022-11-20T09:25:19.788Z,21.73
2022-11-20T09:27:47.156Z,21.23
2022-11-20T09:30:15.600Z,23.90
2022-11-20T09:32:42.975Z,22.23
2022-11-20T09:35:10.249Z,22.70
2022-11-20T09:37:36.912Z,21.13
2022-11-20T09:40:04.113Z,22.52
2022-11-20T09:42:44.438Z,22.75
2022-11-20T09:45:39.041Z,21.13
2022-11-20T09:48:13.794Z,21.75
2022-11-20T09:51:04.576Z,22.95
2022-11-20T09:53:48.568Z,23.40
2022-11-20T09:56:19.712Z,21.65
2022-11-20T09:58:52.585Z,26.08
2022-11-20T10:01:22.088Z,23.83
2022-11-20T10:04:00.774Z,24.08
2022-11-20T10:06:40.759Z,24.48
2022-11-20T10:09:13.636Z,23.75
2022-11-20T10:11:47.364Z,24.38
2022-11-20T10:14:36.432Z,22.20
2022-11-20T10:17:19.950Z,17.85
2022-11-20T10:20:00.807Z,23.65
2022-11-20T10:22:49.354Z,22.58
2022-11-20T10:25:17.128Z,22.55
2022-11-20T10:28:17.368Z,22.52
2022-11-20T10:30:46.800Z,23.20
2022-11-20T10:33:24.350Z,25.17
2022-11-20T10:36:17.512Z,23.27
2022-11-20T10:38:47.942Z,20.95
2022-11-20T10:41:27.062Z,23.70
2022-11-20T10:44:10.160Z,23.42
2022-11-20T10:46:44.923Z,23.58
2022-11-20T10:49:15.794Z,22.63
2022-11-20T10:52:05.656Z,23.27
2022-11-20T10:54:59.354Z,24.58
2022-11-20T10:58:02.931Z,21.75
2022-11-20T11:00:33.059Z,22.65
2022-11-20T11:03:04.063Z,22.80
2022-11-20T11:05:52.334Z,23.15
2022-11-20T11:08:22.628Z,23.73
2022-11-20T11:10:54.304Z,23.10
2022-11-20T11:13:26.473Z,22.85
2022-11-20T11:15:53.843Z,22.13
2022-11-20T11:18:28.220Z,21.77
2022-11-20T11:20:57.172Z,20.58
2022-11-20T11:23:35.329Z,17.42
2022-11-20T11:26:05.129Z,19.65
2022-11-20T11:30:58.712Z,15.55
2022-11-20T11:33:30.147Z,16.08
2022-11-20T11:36:00.451Z,14.85
2022-11-20T11:38:33.785Z,13.63
2022-11-20T11:41:00.738Z,14.20
2022-11-20T11:43:50.198Z,10.45
2022-11-20T11:46:34.569Z,9.48
2022-11-20T11:49:10.357Z,10.45
2022-11-20T11:52:15.672Z,10.60
2022-11-20T11:54:58.033Z,9.82
2022-11-20T11:57:43.155Z,10.68
2022-11-20T12:00:19.134Z,11.10
2022-11-20T12:02:45.714Z,10.40
2022-11-20T12:05:24.472Z,10.27
2022-11-20T12:08:06.941Z,10.77
2022-11-20T12:10:49.567Z,10.30
2022-11-20T12:14:02.949Z,10.10
2022-11-20T12:16:35.773Z,9.77
2022-11-20T12:19:02.551Z,8.70
2022-11-20T12:21:43.363Z,8.25
2022-11-20T12:24:37.638Z,7.70
2022-11-20T12:27:04.712Z,8.00
2022-11-20T12:29:58.348Z,7.97
2022-11-20T12:32:58.832Z,6.65
2022-11-20T12:35:31.633Z,7.32
2022-11-20T12:38:29.080Z,8.55
2022-11-20T12:41:13.796Z,7.72
2022-11-20T12:44:30.764Z,6.90
2022-11-20T12:47:20.091Z,6.82
2022-11-20T12:50:07.270Z,5.97
2022-11-20T12:52:51.272Z,5.82
2022-11-20T12:55:34.719Z,5.65
2022-11-20T12:58:17.495Z,6.13
2022-11-20T13:01:01.480Z,6.05
2022-11-20T13:03:40.111Z,5.10
2022-11-20T13:06:27.081Z,3.50
2022-11-20T13:08:56.867Z,3.30
2022-11-20T13:11:40.773Z,1.70
2022-11-20T13:14:44.525Z,1.63
2022-11-20T13:17:18.685Z,0.73
2022-11-20T13:19:57.260Z,0.93
2022-11-20T13:22:55.594Z,0.50
2022-11-20T13:25:25.254Z,0.68
2022-11-20T13:30:21.555Z,0.80
2022-11-20T13:35:36.198Z,0.80
2022-11-20T13:38:05.985Z,0.90
2022-11-20T13:43:38.032Z,0.82
2022-11-20T13:46:07.708Z,0.50
2022-11-20T13:51:09.569Z,1.88
2022-11-20T13:54:00.684Z,0.85
2022-11-20T13:56:51.997Z,1.02
2022-11-20T13:59:56.433Z,4.65
2022-11-20T14:02:26.026Z,0.50
2022-11-20T14:04:54.863Z,0.30
2022-11-20T14:07:25.325Z,0.10
2022-11-20T14:09:57.520Z,1.00
2022-11-20T14:12:30.693Z,0.77
2022-11-20T14:14:57.518Z,1.13
2022-11-20T14:17:30.306Z,0.70
2022-11-20T14:20:06.034Z,0.70
2022-11-20T14:22:33.020Z,0.32
2022-11-20T14:25:13.981Z,0.20
2022-11-20T14:27:49.021Z,0.40
2022-11-20T14:30:24.467Z,0.50
2022-11-20T14:32:52.640Z,0.28
2022-11-20T14:35:26.256Z,1.35
2022-11-20T14:37:53.951Z,0.40
2022-11-20T14:40:27.589Z,0.60
2022-11-20T14:42:54.563Z,0.10
2022-11-20T14:45:22.986Z,0.00
2022-11-20T14:47:51.154Z,0.20
2022-11-20T14:50:29.561Z,0.45
2022-11-20T14:53:01.402Z,0.17
2022-11-20T14:55:36.504Z,0.47
2022-11-20T14:58:06.787Z,0.30
2022-11-20T15:00:36.141Z,0.60
2022-11-20T15:03:02.700Z,0.30
2022-11-20T15:05:49.945Z,0.32
2022-11-20T15:08:18.072Z,0.20
2022-11-20T15:10:52.162Z,0.95
2022-11-20T15:13:30.477Z,0.95
2022-11-20T15:15:59.096Z,1.20
2022-11-20T15:18:40.471Z,1.45
2022-11-20T15:21:18.999Z,1.52
2022-11-20T15:23:45.912Z,0.55
2022-11-20T15:26:19.912Z,0.63
2022-11-20T15:28:51.437Z,0.40
2022-11-20T15:31:21.871Z,0.60
2022-11-20T15:33:48.858Z,0.50
2022-11-20T15:36:16.564Z,0.60
2022-11-20T15:38:43.233Z,0.45
2022-11-20T15:41:11.227Z,0.55
2022-11-20T15:43:38.059Z,1.15
2022-11-20T15:46:10.268Z,1.00
2022-11-20T15:48:48.319Z,0.40
2022-11-20T15:51:22.068Z,1.20
2022-11-20T15:53:48.708Z,0.88
2022-11-20T15:56:15.742Z,0.55
2022-11-20T15:58:42.568Z,2.30
2022-11-20T16:01:14.973Z,0.80
2022-11-20T16:03:42.301Z,3.60
2022-11-20T16:06:08.858Z,4.15
2022-11-20T16:08:35.789Z,4.88
2022-11-20T16:11:02.997Z,4.18
2022-11-20T16:13:50.194Z,4.75
2022-11-20T16:16:23.468Z,5.55
2022-11-20T16:18:51.054Z,4.50
2022-11-20T16:21:18.163Z,6.05
2022-11-20T16:23:44.932Z,5.22
2022-11-20T16:26:17.819Z,5.30
2022-11-20T16:28:44.836Z,5.90
2022-11-20T16:31:16.800Z,4.70
2022-11-20T16:33:44.083Z,3.35
2022-11-20T16:36:15.970Z,1.38
2022-11-20T16:38:43.029Z,4.68
2022-11-20T16:41:14.380Z,1.65
2022-11-20T16:43:49.534Z,2.25
2022-11-20T16:46:17.363Z,0.65
2022-11-20T16:48:43.961Z,1.13
2022-11-20T16:51:12.133Z,0.63
2022-11-20T16:53:42.680Z,1.35
2022-11-20T16:56:17.972Z,2.50
2022-11-20T16:58:45.812Z,0.40
2022-11-20T17:01:16.227Z,1.52
2022-11-20T17:03:44.663Z,0.98
2022-11-20T17:06:18.320Z,1.55
2022-11-20T17:08:46.405Z,2.28
2022-11-20T17:11:15.930Z,1.15
2022-11-20T17:13:43.036Z,0.75
2022-11-20T17:16:12.862Z,2.65
2022-11-20T17:21:07.557Z,6.13
2022-11-20T17:23:42.284Z,6.30
2022-11-20T17:26:13.925Z,7.03
2022-11-20T17:28:41.436Z,5.32
2022-11-20T17:31:17.564Z,3.53
2022-11-20T17:33:46.432Z,5.25
2022-11-20T17:36:16.225Z,2.40
2022-11-20T17:41:20.555Z,4.38
2022-11-20T17:43:47.342Z,3.30
2022-11-20T17:46:19.198Z,1.17
2022-11-20T17:48:49.529Z,1.67
2022-11-20T17:51:22.214Z,1.15
2022-11-20T17:53:51.481Z,1.35
2022-11-20T17:56:36.677Z,1.65
2022-11-20T17:59:07.872Z,2.47
2022-11-20T18:01:35.512Z,1.42
2022-11-20T18:04:02.854Z,6.45
2022-11-20T18:06:31.215Z,2.03
2022-11-20T18:08:59.646Z,1.17
2022-11-20T18:11:33.843Z,1.67
2022-11-20T18:14:21.404Z,1.77
2022-11-20T18:16:51.425Z,1.95
2022-11-20T18:19:21.376Z,1.30
2022-11-20T18:21:48.080Z,1.30
2022-11-20T18:24:15.362Z,1.63
2022-11-20T18:26:44.520Z,0.80
2022-11-20T18:29:12.796Z,0.70
2022-11-20T18:31:39.946Z,1.20
2022-11-20T18:34:11.679Z,1.17
2022-11-20T18:36:38.927Z,0.93
2022-11-20T18:39:05.959Z,0.73
2022-11-20T18:41:51.079Z,1.10
2022-11-20T18:44:41.700Z,1.05
2022-11-20T18:47:14.617Z,3.20
2022-11-20T18:49:50.642Z,0.20
2022-11-20T18:52:17.825Z,1.30
2022-11-20T18:54:44.547Z,0.82
2022-11-20T18:57:14.657Z,1.10
2022-11-20T18:59:44.552Z,1.35
2022-11-20T19:02:16.160Z,1.05
2022-11-20T19:04:43.445Z,0.95
2022-11-20T19:07:12.205Z,0.60
2022-11-20T19:09:41.099Z,0.82
2022-11-20T19:12:12.426Z,1.40
2022-11-20T19:14:39.416Z,0.90
2022-11-20T19:17:07.900Z,0.40
2022-11-20T19:19:35.982Z,1.00
2022-11-20T19:22:04.256Z,0.50
2022-11-20T19:24:30.965Z,0.70
2022-11-20T19:26:57.684Z,1.45
2022-11-20T19:29:25.750Z,0.80
2022-11-20T19:31:53.610Z,0.70
2022-11-20T19:34:20.559Z,2.05
2022-11-20T19:36:47.585Z,0.88
2022-11-20T19:39:14.263Z,0.77
2022-11-20T19:41:41.617Z,0.40
2022-11-20T19:44:11.111Z,1.15
2022-11-20T19:46:39.353Z,0.90
2022-11-20T19:49:10.125Z,1.20
2022-11-20T19:51:39.305Z,0.75
2022-11-20T19:54:06.963Z,0.50
2022-11-20T19:56:34.295Z,2.55
2022-11-20T19:59:01.394Z,0.43
2022-11-20T20:01:30.746Z,0.52
2022-11-20T20:04:02.526Z,1.05
2022-11-20T20:06:30.160Z,0.82
2022-11-20T20:09:02.733Z,0.57
2022-11-20T20:11:31.548Z,0.47
2022-11-20T20:14:01.250Z,0.60
2022-11-20T20:16:28.824Z,0.50
2022-11-20T20:18:57.603Z,0.85
2022-11-20T20:21:24.503Z,0.80
2022-11-20T20:23:56.028Z,0.63
2022-11-20T20:26:28.662Z,0.80
2022-11-20T20:28:55.790Z,0.43
2022-11-20T20:31:27.791Z,0.98
2022-11-20T20:33:55.211Z,0.30
2022-11-20T20:36:24.067Z,1.73
2022-11-20T20:39:05.210Z,1.37
2022-11-20T20:41:32.345Z,0.20
2022-11-20T20:44:17.753Z,0.25
2022-11-20T20:46:44.360Z,0.68
2022-11-20T20:49:10.993Z,0.52
2022-11-20T20:51:37.684Z,0.17
2022-11-20T20:54:04.775Z,0.70
2022-11-20T20:56:31.596Z,0.47
2022-11-20T20:58:58.433Z,0.70
2022-11-20T21:01:28.514Z,0.63
2022-11-20T21:03:56.290Z,0.50
2022-11-20T21:06:22.981Z,0.95
2022-11-20T21:08:49.691Z,1.23
2022-11-20T21:11:20.044Z,1.17
2022-11-20T21:16:15.363Z,0.68
2022-11-20T21:18:42.104Z,0.38
2022-11-20T21:21:32.068Z,0.85
2022-11-20T21:23:58.642Z,0.80
2022-11-20T21:26:25.315Z,1.48
2022-11-20T21:28:51.965Z,2.00
2022-11-20T21:31:28.828Z,1.08
2022-11-20T21:33:56.575Z,1.50
2022-11-20T21:36:26.118Z,1.08
2022-11-20T21:38:56.584Z,0.63
2022-11-20T21:41:27.307Z,3.00
2022-11-20T21:44:29.000Z,0.47
2022-11-20T21:46:44.380Z,0.65
2022-11-20T21:49:11.620Z,0.43
2022-11-20T21:51:38.764Z,0.70
2022-11-20T21:54:08.329Z,0.43
2022-11-20T21:56:35.372Z,0.55
2022-11-20T21:59:02.164Z,0.25
2022-11-20T22:01:30.385Z,0.75
2022-11-20T22:03:59.845Z,0.93
2022-11-20T22:06:30.250Z,1.05
2022-11-20T22:08:56.868Z,0.68
2022-11-20T22:11:23.777Z,0.55
2022-11-20T22:14:08.895Z,0.80
2022-11-20T22:16:36.864Z,1.13
2022-11-20T22:19:04.626Z,1.38
2022-11-20T22:21:38.195Z,1.63
2022-11-20T22:24:04.934Z,1.77
2022-11-20T22:26:38.804Z,2.03
2022-11-20T22:29:07.229Z,0.93
2022-11-20T22:31:34.091Z,0.82
2022-11-20T22:34:02.333Z,0.80
2022-11-20T22:36:30.524Z,0.90
2022-11-20T22:38:58.215Z,0.68
2022-11-20T22:41:27.437Z,1.05
2022-11-20T22:44:01.855Z,0.60
2022-11-20T22:46:31.238Z,0.30
2022-11-20T22:49:00.103Z,1.20
2022-11-20T22:51:32.797Z,0.40
2022-11-20T22:53:59.955Z,0.20
2022-11-20T22:56:27.192Z,0.60
2022-11-20T22:58:54.755Z,0.52
2022-11-20T23:01:23.828Z,1.77
2022-11-20T23:03:52.630Z,2.53
2022-11-20T23:06:21.630Z,1.77
2022-11-20T23:08:49.225Z,0.77
2022-11-20T23:11:22.454Z,0.65
2022-11-20T23:13:57.940Z,1.08
2022-11-20T23:16:27.117Z,0.82
2022-11-20T23:18:59.975Z,0.50
2022-11-20T23:21:27.324Z,0.75
2022-11-20T23:23:56.349Z,0.85
2022-11-20T23:26:25.779Z,1.27
2022-11-20T23:28:57.822Z,0.75
2022-11-20T23:31:25.856Z,0.80
2022-11-20T23:33:52.568Z,0.60
2022-11-20T23:36:19.351Z,1.23
2022-11-20T23:38:45.950Z,3.38
2022-11-20T23:41:13.328Z,0.93
2022-11-20T23:43:40.387Z,1.02
2022-11-20T23:46:07.105Z,1.50
2022-11-20T23:48:35.905Z,0.47
2022-11-20T23:51:03.346Z,1.02
2022-11-20T23:53:30.505Z,0.57
2022-11-20T23:55:59.587Z,1.23
2022-11-20T23:58:34.942Z,0.70
